sensor_id;sensor_type;location;lat;lon;timestamp;P1;durP1;ratioP1;P2;durP2;ratioP2
64313;SDS011;50650;48.180;11.524;2023-12-14T00:02:15;1.48;;;0.60;;
64313;SDS011;50650;48.180;11.524;2023-12-14T00:04:42;1.48;;;0.40;;
64313;SDS011;50650;48.180;11.524;2023-12-14T00:07:09;0.82;;;0.30;;
64313;SDS011;50650;48.180;11.524;2023-12-14T00:09:39;2.40;;;0.40;;
64313;SDS011;50650;48.180;11.524;2023-12-14T00:12:08;0.98;;;0.40;;
64313;SDS011;50650;48.180;11.524;2023-12-14T00:14:37;0.90;;;0.47;;
64313;SDS011;50650;48.180;11.524;2023-12-14T00:17:04;2.05;;;0.52;;
64313;SDS011;50650;48.180;11.524;2023-12-14T00:19:30;0.63;;;0.40;;
64313;SDS011;50650;48.180;11.524;2023-12-14T00:21:56;0.47;;;0.30;;
64313;SDS011;50650;48.180;11.524;2023-12-14T00:24:24;4.72;;;0.75;;
64313;SDS011;50650;48.180;11.524;2023-12-14T00:26:51;2.80;;;0.63;;
64313;SDS011;50650;48.180;11.524;2023-12-14T00:29:17;0.65;;;0.40;;
64313;SDS011;50650;48.180;11.524;2023-12-14T00:31:51;0.68;;;0.38;;
64313;SDS011;50650;48.180;11.524;2023-12-14T00:34:18;0.77;;;0.47;;
64313;SDS011;50650;48.180;11.524;2023-12-14T00:36:47;0.82;;;0.43;;
64313;SDS011;50650;48.180;11.524;2023-12-14T00:39:13;0.43;;;0.30;;
64313;SDS011;50650;48.180;11.524;2023-12-14T00:41:44;0.88;;;0.40;;
64313;SDS011;50650;48.180;11.524;2023-12-14T00:44:10;1.33;;;0.50;;
64313;SDS011;50650;48.180;11.524;2023-12-14T00:46:37;0.73;;;0.40;;
64313;SDS011;50650;48.180;11.524;2023-12-14T00:49:03;0.88;;;0.45;;
64313;SDS011;50650;48.180;11.524;2023-12-14T00:51:29;1.63;;;0.55;;
64313;SDS011;50650;48.180;11.524;2023-12-14T00:53:56;1.33;;;0.50;;
64313;SDS011;50650;48.180;11.524;2023-12-14T00:56:22;1.02;;;0.40;;
64313;SDS011;50650;48.180;11.524;2023-12-14T00:58:50;1.13;;;0.50;;
64313;SDS011;50650;48.180;11.524;2023-12-14T01:01:16;0.73;;;0.47;;
64313;SDS011;50650;48.180;11.524;2023-12-14T01:03:46;1.20;;;0.60;;
64313;SDS011;50650;48.180;11.524;2023-12-14T01:06:12;1.88;;;0.60;;
64313;SDS011;50650;48.180;11.524;2023-12-14T01:08:39;2.10;;;0.55;;
64313;SDS011;50650;48.180;11.524;2023-12-14T01:11:05;1.15;;;0.60;;
64313;SDS011;50650;48.180;11.524;2023-12-14T01:13:32;0.88;;;0.50;;
64313;SDS011;50650;48.180;11.524;2023-12-14T01:16:03;1.42;;;0.40;;
64313;SDS011;50650;48.180;11.524;2023-12-14T01:18:33;2.30;;;0.60;;
64313;SDS011;50650;48.180;11.524;2023-12-14T01:21:00;1.67;;;0.70;;
64313;SDS011;50650;48.180;11.524;2023-12-14T01:23:26;0.73;;;0.47;;
64313;SDS011;50650;48.180;11.524;2023-12-14T01:25:52;1.25;;;0.60;;
64313;SDS011;50650;48.180;11.524;2023-12-14T01:28:19;0.93;;;0.50;;
64313;SDS011;50650;48.180;11.524;2023-12-14T01:30:48;2.72;;;0.85;;
64313;SDS011;50650;48.180;11.524;2023-12-14T01:33:16;1.10;;;0.57;;
64313;SDS011;50650;48.180;11.524;2023-12-14T01:35:42;1.05;;;0.50;;
64313;SDS011;50650;48.180;11.524;2023-12-14T01:38:11;2.03;;;0.55;;
64313;SDS011;50650;48.180;11.524;2023-12-14T01:40:37;0.65;;;0.40;;
64313;SDS011;50650;48.180;11.524;2023-12-14T01:43:07;1.58;;;0.50;;
64313;SDS011;50650;48.180;11.524;2023-12-14T01:45:35;1.38;;;0.50;;
64313;SDS011;50650;48.180;11.524;2023-12-14T01:48:01;1.98;;;0.40;;
64313;SDS011;50650;48.180;11.524;2023-12-14T01:50:29;0.70;;;0.30;;
64313;SDS011;50650;48.180;11.524;2023-12-14T01:52:55;0.32;;;0.25;;
64313;SDS011;50650;48.180;11.524;2023-12-14T01:55:22;0.77;;;0.40;;
64313;SDS011;50650;48.180;11.524;2023-12-14T01:57:48;0.40;;;0.30;;
64313;SDS011;50650;48.180;11.524;2023-12-14T02:00:19;0.45;;;0.13;;
64313;SDS011;50650;48.180;11.524;2023-12-14T02:02:49;0.57;;;0.30;;
64313;SDS011;50650;48.180;11.524;2023-12-14T02:05:16;0.65;;;0.22;;
64313;SDS011;50650;48.180;11.524;2023-12-14T02:07:44;0.85;;;0.30;;
64313;SDS011;50650;48.180;11.524;2023-12-14T02:10:10;0.45;;;0.25;;
64313;SDS011;50650;48.180;11.524;2023-12-14T02:12:37;0.38;;;0.20;;
64313;SDS011;50650;48.180;11.524;2023-12-14T02:15:03;0.45;;;0.30;;
64313;SDS011;50650;48.180;11.524;2023-12-14T02:17:30;1.23;;;0.30;;
64313;SDS011;50650;48.180;11.524;2023-12-14T02:20:06;0.63;;;0.20;;
64313;SDS011;50650;48.180;11.524;2023-12-14T02:22:47;1.67;;;0.20;;
64313;SDS011;50650;48.180;11.524;2023-12-14T02:25:15;0.50;;;0.22;;
64313;SDS011;50650;48.180;11.524;2023-12-14T02:27:47;0.47;;;0.30;;
64313;SDS011;50650;48.180;11.524;2023-12-14T02:30:17;0.68;;;0.40;;
64313;SDS011;50650;48.180;11.524;2023-12-14T02:32:44;0.65;;;0.40;;
64313;SDS011;50650;48.180;11.524;2023-12-14T02:35:10;0.50;;;0.40;;
64313;SDS011;50650;48.180;11.524;2023-12-14T02:37:38;0.90;;;0.50;;
64313;SDS011;50650;48.180;11.524;2023-12-14T02:40:05;1.02;;;0.32;;
64313;SDS011;50650;48.180;11.524;2023-12-14T02:42:33;0.50;;;0.40;;
64313;SDS011;50650;48.180;11.524;2023-12-14T02:44:59;0.70;;;0.55;;
64313;SDS011;50650;48.180;11.524;2023-12-14T02:47:27;1.63;;;0.55;;
64313;SDS011;50650;48.180;11.524;2023-12-14T02:49:53;2.00;;;0.77;;
64313;SDS011;50650;48.180;11.524;2023-12-14T02:52:23;1.08;;;0.80;;
64313;SDS011;50650;48.180;11.524;2023-12-14T02:54:50;1.10;;;0.80;;
64313;SDS011;50650;48.180;11.524;2023-12-14T02:57:17;1.02;;;0.77;;
64313;SDS011;50650;48.180;11.524;2023-12-14T02:59:47;1.92;;;0.88;;
64313;SDS011;50650;48.180;11.524;2023-12-14T03:02:15;1.25;;;0.90;;
64313;SDS011;50650;48.180;11.524;2023-12-14T03:04:42;1.05;;;0.90;;
64313;SDS011;50650;48.180;11.524;2023-12-14T03:07:17;2.08;;;1.33;;
64313;SDS011;50650;48.180;11.524;2023-12-14T03:09:44;1.30;;;1.20;;
64313;SDS011;50650;48.180;11.524;2023-12-14T03:12:12;1.45;;;1.10;;
64313;SDS011;50650;48.180;11.524;2023-12-14T03:14:38;1.80;;;1.20;;
64313;SDS011;50650;48.180;11.524;2023-12-14T03:17:08;1.70;;;1.30;;
64313;SDS011;50650;48.180;11.524;2023-12-14T03:19:37;1.90;;;1.20;;
64313;SDS011;50650;48.180;11.524;2023-12-14T03:22:04;1.80;;;1.35;;
64313;SDS011;50650;48.180;11.524;2023-12-14T03:24:31;2.15;;;1.20;;
64313;SDS011;50650;48.180;11.524;2023-12-14T03:26:57;2.08;;;1.27;;
64313;SDS011;50650;48.180;11.524;2023-12-14T03:29:24;1.70;;;1.40;;
64313;SDS011;50650;48.180;11.524;2023-12-14T03:31:53;1.77;;;1.13;;
64313;SDS011;50650;48.180;11.524;2023-12-14T03:34:20;2.00;;;1.17;;
64313;SDS011;50650;48.180;11.524;2023-12-14T03:36:46;1.27;;;1.10;;
64313;SDS011;50650;48.180;11.524;2023-12-14T03:39:21;1.65;;;1.02;;
64313;SDS011;50650;48.180;11.524;2023-12-14T03:41:54;1.80;;;1.17;;
64313;SDS011;50650;48.180;11.524;2023-12-14T03:44:20;1.27;;;1.10;;
64313;SDS011;50650;48.180;11.524;2023-12-14T03:46:52;1.30;;;1.10;;
64313;SDS011;50650;48.180;11.524;2023-12-14T03:49:19;1.50;;;1.10;;
64313;SDS011;50650;48.180;11.524;2023-12-14T03:51:45;1.35;;;1.20;;
64313;SDS011;50650;48.180;11.524;2023-12-14T03:54:12;1.95;;;1.25;;
64313;SDS011;50650;48.180;11.524;2023-12-14T03:56:39;2.45;;;1.27;;
64313;SDS011;50650;48.180;11.524;2023-12-14T03:59:05;4.50;;;1.35;;
64313;SDS011;50650;48.180;11.524;2023-12-14T04:01:32;3.38;;;1.25;;
64313;SDS011;50650;48.180;11.524;2023-12-14T04:04:00;2.05;;;1.27;;
64313;SDS011;50650;48.180;11.524;2023-12-14T04:06:26;1.23;;;0.85;;
64313;SDS011;50650;48.180;11.524;2023-12-14T04:08:52;1.60;;;1.20;;
64313;SDS011;50650;48.180;11.524;2023-12-14T04:11:20;1.08;;;0.93;;
64313;SDS011;50650;48.180;11.524;2023-12-14T04:13:46;1.67;;;1.10;;
64313;SDS011;50650;48.180;11.524;2023-12-14T04:16:15;1.83;;;1.10;;
64313;SDS011;50650;48.180;11.524;2023-12-14T04:18:41;1.50;;;0.95;;
64313;SDS011;50650;48.180;11.524;2023-12-14T04:21:09;1.15;;;1.00;;
64313;SDS011;50650;48.180;11.524;2023-12-14T04:23:35;1.58;;;1.30;;
64313;SDS011;50650;48.180;11.524;2023-12-14T04:26:02;2.08;;;1.10;;
64313;SDS011;50650;48.180;11.524;2023-12-14T04:28:29;1.75;;;1.20;;
64313;SDS011;50650;48.180;11.524;2023-12-14T04:30:57;1.50;;;1.02;;
64313;SDS011;50650;48.180;11.524;2023-12-14T04:33:24;3.13;;;0.90;;
64313;SDS011;50650;48.180;11.524;2023-12-14T04:35:50;1.20;;;0.93;;
64313;SDS011;50650;48.180;11.524;2023-12-14T04:38:19;1.20;;;0.80;;
64313;SDS011;50650;48.180;11.524;2023-12-14T04:40:45;1.02;;;0.90;;
64313;SDS011;50650;48.180;11.524;2023-12-14T04:43:12;1.23;;;0.85;;
64313;SDS011;50650;48.180;11.524;2023-12-14T04:45:38;1.23;;;0.90;;
64313;SDS011;50650;48.180;11.524;2023-12-14T04:48:05;2.78;;;0.90;;
64313;SDS011;50650;48.180;11.524;2023-12-14T04:50:31;0.98;;;0.88;;
64313;SDS011;50650;48.180;11.524;2023-12-14T04:52:58;1.13;;;0.70;;
64313;SDS011;50650;48.180;11.524;2023-12-14T04:55:25;1.23;;;0.95;;
64313;SDS011;50650;48.180;11.524;2023-12-14T04:57:52;1.10;;;0.80;;
64313;SDS011;50650;48.180;11.524;2023-12-14T05:00:18;1.42;;;0.90;;
64313;SDS011;50650;48.180;11.524;2023-12-14T05:02:46;1.88;;;0.80;;
64313;SDS011;50650;48.180;11.524;2023-12-14T05:05:14;0.93;;;0.70;;
64313;SDS011;50650;48.180;11.524;2023-12-14T05:07:40;1.00;;;0.80;;
64313;SDS011;50650;48.180;11.524;2023-12-14T05:10:07;1.70;;;0.80;;
64313;SDS011;50650;48.180;11.524;2023-12-14T05:12:36;1.67;;;0.82;;
64313;SDS011;50650;48.180;11.524;2023-12-14T05:15:06;0.80;;;0.50;;
64313;SDS011;50650;48.180;11.524;2023-12-14T05:17:32;2.55;;;0.80;;
64313;SDS011;50650;48.180;11.524;2023-12-14T05:19:59;1.48;;;0.75;;
64313;SDS011;50650;48.180;11.524;2023-12-14T05:22:26;1.25;;;0.55;;
64313;SDS011;50650;48.180;11.524;2023-12-14T05:24:55;0.98;;;0.70;;
64313;SDS011;50650;48.180;11.524;2023-12-14T05:27:22;2.80;;;1.02;;
64313;SDS011;50650;48.180;11.524;2023-12-14T05:29:51;2.10;;;0.85;;
64313;SDS011;50650;48.180;11.524;2023-12-14T05:32:17;1.48;;;0.98;;
64313;SDS011;50650;48.180;11.524;2023-12-14T05:34:46;2.78;;;0.88;;
64313;SDS011;50650;48.180;11.524;2023-12-14T05:37:13;3.70;;;0.75;;
64313;SDS011;50650;48.180;11.524;2023-12-14T05:39:40;2.40;;;0.70;;
64313;SDS011;50650;48.180;11.524;2023-12-14T05:42:10;2.55;;;0.95;;
64313;SDS011;50650;48.180;11.524;2023-12-14T05:44:36;2.33;;;1.00;;
64313;SDS011;50650;48.180;11.524;2023-12-14T05:47:04;1.38;;;0.90;;
64313;SDS011;50650;48.180;11.524;2023-12-14T05:49:31;3.10;;;1.15;;
64313;SDS011;50650;48.180;11.524;2023-12-14T05:52:00;1.50;;;0.70;;
64313;SDS011;50650;48.180;11.524;2023-12-14T05:54:26;2.67;;;1.15;;
64313;SDS011;50650;48.180;11.524;2023-12-14T05:56:52;2.13;;;1.20;;
64313;SDS011;50650;48.180;11.524;2023-12-14T05:59:19;3.22;;;0.90;;
64313;SDS011;50650;48.180;11.524;2023-12-14T06:01:45;2.15;;;1.02;;
64313;SDS011;50650;48.180;11.524;2023-12-14T06:04:14;1.67;;;1.10;;
64313;SDS011;50650;48.180;11.524;2023-12-14T06:06:40;2.03;;;1.17;;
64313;SDS011;50650;48.180;11.524;2023-12-14T06:09:06;2.33;;;1.25;;
64313;SDS011;50650;48.180;11.524;2023-12-14T06:11:33;2.97;;;1.40;;
64313;SDS011;50650;48.180;11.524;2023-12-14T06:14:01;2.38;;;1.40;;
64313;SDS011;50650;48.180;11.524;2023-12-14T06:16:27;4.70;;;1.33;;
64313;SDS011;50650;48.180;11.524;2023-12-14T06:18:54;1.88;;;1.50;;
64313;SDS011;50650;48.180;11.524;2023-12-14T06:21:22;2.13;;;1.52;;
64313;SDS011;50650;48.180;11.524;2023-12-14T06:23:51;2.58;;;1.33;;
64313;SDS011;50650;48.180;11.524;2023-12-14T06:26:17;4.47;;;1.70;;
64313;SDS011;50650;48.180;11.524;2023-12-14T06:28:44;2.38;;;1.42;;
64313;SDS011;50650;48.180;11.524;2023-12-14T06:31:11;2.58;;;1.70;;
64313;SDS011;50650;48.180;11.524;2023-12-14T06:33:39;3.50;;;1.85;;
64313;SDS011;50650;48.180;11.524;2023-12-14T06:36:06;2.53;;;1.75;;
64313;SDS011;50650;48.180;11.524;2023-12-14T06:38:36;3.20;;;1.73;;
64313;SDS011;50650;48.180;11.524;2023-12-14T06:41:07;2.67;;;1.95;;
64313;SDS011;50650;48.180;11.524;2023-12-14T06:43:33;2.03;;;1.60;;
64313;SDS011;50650;48.180;11.524;2023-12-14T06:46:02;2.75;;;1.90;;
64313;SDS011;50650;48.180;11.524;2023-12-14T06:48:29;3.08;;;1.95;;
64313;SDS011;50650;48.180;11.524;2023-12-14T06:50:55;2.58;;;1.85;;
64313;SDS011;50650;48.180;11.524;2023-12-14T06:53:22;3.15;;;1.95;;
64313;SDS011;50650;48.180;11.524;2023-12-14T06:55:50;2.80;;;2.03;;
64313;SDS011;50650;48.180;11.524;2023-12-14T06:58:22;5.05;;;1.90;;
64313;SDS011;50650;48.180;11.524;2023-12-14T07:00:48;3.90;;;2.05;;
64313;SDS011;50650;48.180;11.524;2023-12-14T07:03:21;3.50;;;2.00;;
64313;SDS011;50650;48.180;11.524;2023-12-14T07:05:47;2.35;;;1.75;;
64313;SDS011;50650;48.180;11.524;2023-12-14T07:08:13;3.50;;;1.95;;
64313;SDS011;50650;48.180;11.524;2023-12-14T07:10:40;2.70;;;1.70;;
64313;SDS011;50650;48.180;11.524;2023-12-14T07:13:08;3.47;;;1.88;;
64313;SDS011;50650;48.180;11.524;2023-12-14T07:15:35;3.25;;;1.92;;
64313;SDS011;50650;48.180;11.524;2023-12-14T07:18:01;3.35;;;1.70;;
64313;SDS011;50650;48.180;11.524;2023-12-14T07:20:28;2.85;;;1.90;;
64313;SDS011;50650;48.180;11.524;2023-12-14T07:22:54;4.35;;;1.90;;
64313;SDS011;50650;48.180;11.524;2023-12-14T07:25:20;2.67;;;1.83;;
64313;SDS011;50650;48.180;11.524;2023-12-14T07:27:53;4.75;;;2.00;;
64313;SDS011;50650;48.180;11.524;2023-12-14T07:30:21;4.45;;;2.10;;
64313;SDS011;50650;48.180;11.524;2023-12-14T07:32:47;2.83;;;1.88;;
64313;SDS011;50650;48.180;11.524;2023-12-14T07:35:14;3.40;;;1.75;;
64313;SDS011;50650;48.180;11.524;2023-12-14T07:37:40;6.43;;;2.30;;
64313;SDS011;50650;48.180;11.524;2023-12-14T07:40:07;5.38;;;2.05;;
64313;SDS011;50650;48.180;11.524;2023-12-14T07:42:34;3.83;;;1.60;;
64313;SDS011;50650;48.180;11.524;2023-12-14T07:45:04;4.07;;;1.75;;
64313;SDS011;50650;48.180;11.524;2023-12-14T07:47:32;5.32;;;1.95;;
64313;SDS011;50650;48.180;11.524;2023-12-14T07:49:59;3.88;;;2.03;;
64313;SDS011;50650;48.180;11.524;2023-12-14T07:52:25;4.22;;;1.63;;
64313;SDS011;50650;48.180;11.524;2023-12-14T07:54:51;5.55;;;2.22;;
64313;SDS011;50650;48.180;11.524;2023-12-14T07:57:18;3.05;;;1.90;;
64313;SDS011;50650;48.180;11.524;2023-12-14T07:59:44;4.38;;;2.47;;
64313;SDS011;50650;48.180;11.524;2023-12-14T08:02:11;5.90;;;2.65;;
64313;SDS011;50650;48.180;11.524;2023-12-14T08:04:39;3.45;;;2.45;;
64313;SDS011;50650;48.180;11.524;2023-12-14T08:07:05;4.82;;;2.40;;
64313;SDS011;50650;48.180;11.524;2023-12-14T08:09:32;8.98;;;2.53;;
64313;SDS011;50650;48.180;11.524;2023-12-14T08:11:59;3.83;;;2.63;;
64313;SDS011;50650;48.180;11.524;2023-12-14T08:14:25;4.82;;;2.80;;
64313;SDS011;50650;48.180;11.524;2023-12-14T08:16:52;6.03;;;3.10;;
64313;SDS011;50650;48.180;11.524;2023-12-14T08:19:18;7.57;;;3.42;;
64313;SDS011;50650;48.180;11.524;2023-12-14T08:21:46;5.55;;;2.95;;
64313;SDS011;50650;48.180;11.524;2023-12-14T08:24:12;4.57;;;2.78;;
64313;SDS011;50650;48.180;11.524;2023-12-14T08:26:39;4.82;;;3.30;;
64313;SDS011;50650;48.180;11.524;2023-12-14T08:29:05;5.03;;;3.05;;
64313;SDS011;50650;48.180;11.524;2023-12-14T08:31:33;6.80;;;3.55;;
64313;SDS011;50650;48.180;11.524;2023-12-14T08:34:00;4.82;;;3.40;;
64313;SDS011;50650;48.180;11.524;2023-12-14T08:36:27;4.93;;;3.08;;
64313;SDS011;50650;48.180;11.524;2023-12-14T08:38:54;4.65;;;3.10;;
64313;SDS011;50650;48.180;11.524;2023-12-14T08:41:21;8.30;;;3.60;;
64313;SDS011;50650;48.180;11.524;2023-12-14T08:43:50;5.70;;;3.20;;
64313;SDS011;50650;48.180;11.524;2023-12-14T08:46:17;4.63;;;3.33;;
64313;SDS011;50650;48.180;11.524;2023-12-14T08:48:43;4.63;;;3.33;;
64313;SDS011;50650;48.180;11.524;2023-12-14T08:51:10;4.95;;;3.30;;
64313;SDS011;50650;48.180;11.524;2023-12-14T08:53:36;5.63;;;3.47;;
64313;SDS011;50650;48.180;11.524;2023-12-14T08:56:05;5.47;;;3.45;;
64313;SDS011;50650;48.180;11.524;2023-12-14T08:58:32;5.30;;;2.78;;
64313;SDS011;50650;48.180;11.524;2023-12-14T09:00:58;5.18;;;3.05;;
64313;SDS011;50650;48.180;11.524;2023-12-14T09:03:25;4.90;;;3.22;;
64313;SDS011;50650;48.180;11.524;2023-12-14T09:05:52;7.00;;;3.47;;
64313;SDS011;50650;48.180;11.524;2023-12-14T09:08:18;5.95;;;3.40;;
64313;SDS011;50650;48.180;11.524;2023-12-14T09:10:45;4.68;;;3.10;;
64313;SDS011;50650;48.180;11.524;2023-12-14T09:13:12;6.82;;;4.00;;
64313;SDS011;50650;48.180;11.524;2023-12-14T09:15:39;6.13;;;3.00;;
64313;SDS011;50650;48.180;11.524;2023-12-14T09:18:06;4.18;;;3.03;;
64313;SDS011;50650;48.180;11.524;2023-12-14T09:20:32;4.32;;;3.05;;
64313;SDS011;50650;48.180;11.524;2023-12-14T09:23:00;4.22;;;3.08;;
64313;SDS011;50650;48.180;11.524;2023-12-14T09:25:26;3.65;;;2.70;;
64313;SDS011;50650;48.180;11.524;2023-12-14T09:27:56;4.40;;;2.95;;
64313;SDS011;50650;48.180;11.524;2023-12-14T09:30:24;4.20;;;2.80;;
64313;SDS011;50650;48.180;11.524;2023-12-14T09:32:50;3.53;;;2.72;;
64313;SDS011;50650;48.180;11.524;2023-12-14T09:35:17;5.13;;;2.92;;
64313;SDS011;50650;48.180;11.524;2023-12-14T09:37:43;4.53;;;2.50;;
64313;SDS011;50650;48.180;11.524;2023-12-14T09:40:10;3.55;;;2.80;;
64313;SDS011;50650;48.180;11.524;2023-12-14T09:42:46;4.22;;;2.50;;
64313;SDS011;50650;48.180;11.524;2023-12-14T09:45:12;4.53;;;2.67;;
64313;SDS011;50650;48.180;11.524;2023-12-14T09:47:40;3.70;;;2.40;;
64313;SDS011;50650;48.180;11.524;2023-12-14T09:50:08;3.00;;;2.30;;
64313;SDS011;50650;48.180;11.524;2023-12-14T09:52:35;2.97;;;2.33;;
64313;SDS011;50650;48.180;11.524;2023-12-14T09:55:01;3.55;;;2.40;;
64313;SDS011;50650;48.180;11.524;2023-12-14T09:57:29;3.63;;;2.70;;
64313;SDS011;50650;48.180;11.524;2023-12-14T09:59:56;4.82;;;2.60;;
64313;SDS011;50650;48.180;11.524;2023-12-14T10:02:24;6.03;;;2.50;;
64313;SDS011;50650;48.180;11.524;2023-12-14T10:04:53;5.03;;;3.10;;
64313;SDS011;50650;48.180;11.524;2023-12-14T10:07:21;3.97;;;2.90;;
64313;SDS011;50650;48.180;11.524;2023-12-14T10:09:48;4.90;;;2.70;;
64313;SDS011;50650;48.180;11.524;2023-12-14T10:12:15;5.07;;;2.80;;
64313;SDS011;50650;48.180;11.524;2023-12-14T10:14:42;4.88;;;2.92;;
64313;SDS011;50650;48.180;11.524;2023-12-14T10:17:16;7.97;;;3.17;;
64313;SDS011;50650;48.180;11.524;2023-12-14T10:19:44;4.85;;;3.10;;
64313;SDS011;50650;48.180;11.524;2023-12-14T10:22:13;5.57;;;3.28;;
64313;SDS011;50650;48.180;11.524;2023-12-14T10:24:40;5.55;;;3.03;;
64313;SDS011;50650;48.180;11.524;2023-12-14T10:27:09;5.70;;;3.25;;
64313;SDS011;50650;48.180;11.524;2023-12-14T10:29:36;4.05;;;3.00;;
64313;SDS011;50650;48.180;11.524;2023-12-14T10:32:04;4.70;;;3.13;;
64313;SDS011;50650;48.180;11.524;2023-12-14T10:34:33;4.68;;;2.53;;
64313;SDS011;50650;48.180;11.524;2023-12-14T10:37:00;3.95;;;2.35;;
64313;SDS011;50650;48.180;11.524;2023-12-14T10:39:30;3.42;;;1.85;;
64313;SDS011;50650;48.180;11.524;2023-12-14T10:41:57;2.38;;;1.58;;
64313;SDS011;50650;48.180;11.524;2023-12-14T10:44:25;2.40;;;1.23;;
64313;SDS011;50650;48.180;11.524;2023-12-14T10:46:53;1.75;;;0.98;;
64313;SDS011;50650;48.180;11.524;2023-12-14T10:49:25;1.80;;;1.25;;
64313;SDS011;50650;48.180;11.524;2023-12-14T10:51:51;7.13;;;1.35;;
64313;SDS011;50650;48.180;11.524;2023-12-14T10:54:19;2.22;;;1.30;;
64313;SDS011;50650;48.180;11.524;2023-12-14T10:56:47;5.60;;;1.45;;
64313;SDS011;50650;48.180;11.524;2023-12-14T10:59:14;2.25;;;1.65;;
64313;SDS011;50650;48.180;11.524;2023-12-14T11:01:41;4.80;;;1.85;;
64313;SDS011;50650;48.180;11.524;2023-12-14T11:04:07;3.15;;;2.03;;
64313;SDS011;50650;48.180;11.524;2023-12-14T11:06:38;2.42;;;2.03;;
64313;SDS011;50650;48.180;11.524;2023-12-14T11:09:07;3.53;;;2.30;;
64313;SDS011;50650;48.180;11.524;2023-12-14T11:11:39;3.70;;;2.80;;
64313;SDS011;50650;48.180;11.524;2023-12-14T11:14:10;3.75;;;2.90;;
64313;SDS011;50650;48.180;11.524;2023-12-14T11:16:37;3.88;;;2.53;;
64313;SDS011;50650;48.180;11.524;2023-12-14T11:19:23;3.63;;;2.53;;
64313;SDS011;50650;48.180;11.524;2023-12-14T11:24:50;3.67;;;2.60;;
64313;SDS011;50650;48.180;11.524;2023-12-14T11:27:19;4.13;;;2.90;;
64313;SDS011;50650;48.180;11.524;2023-12-14T11:29:48;4.20;;;2.80;;
64313;SDS011;50650;48.180;11.524;2023-12-14T11:32:16;9.63;;;2.30;;
64313;SDS011;50650;48.180;11.524;2023-12-14T11:34:43;3.80;;;2.30;;
64313;SDS011;50650;48.180;11.524;2023-12-14T11:37:12;5.30;;;1.80;;
64313;SDS011;50650;48.180;11.524;2023-12-14T11:39:38;4.53;;;1.95;;
64313;SDS011;50650;48.180;11.524;2023-12-14T11:42:05;3.20;;;1.58;;
64313;SDS011;50650;48.180;11.524;2023-12-14T11:44:33;2.15;;;1.27;;
64313;SDS011;50650;48.180;11.524;2023-12-14T11:47:03;2.50;;;1.38;;
64313;SDS011;50650;48.180;11.524;2023-12-14T11:49:29;1.88;;;1.15;;
64313;SDS011;50650;48.180;11.524;2023-12-14T11:51:57;3.03;;;1.20;;
64313;SDS011;50650;48.180;11.524;2023-12-14T11:54:23;1.98;;;1.33;;
64313;SDS011;50650;48.180;11.524;2023-12-14T11:56:50;1.55;;;1.00;;
64313;SDS011;50650;48.180;11.524;2023-12-14T11:59:16;1.85;;;1.20;;
64313;SDS011;50650;48.180;11.524;2023-12-14T12:01:53;2.08;;;1.00;;
64313;SDS011;50650;48.180;11.524;2023-12-14T12:04:22;1.83;;;1.10;;
64313;SDS011;50650;48.180;11.524;2023-12-14T12:06:49;2.28;;;1.38;;
64313;SDS011;50650;48.180;11.524;2023-12-14T12:12:00;1.33;;;0.90;;
64313;SDS011;50650;48.180;11.524;2023-12-14T12:14:27;2.47;;;0.90;;
64313;SDS011;50650;48.180;11.524;2023-12-14T12:16:53;3.03;;;1.38;;
64313;SDS011;50650;48.180;11.524;2023-12-14T12:19:21;2.55;;;1.30;;
64313;SDS011;50650;48.180;11.524;2023-12-14T12:21:48;2.67;;;1.02;;
64313;SDS011;50650;48.180;11.524;2023-12-14T12:24:14;2.03;;;0.80;;
64313;SDS011;50650;48.180;11.524;2023-12-14T12:26:40;2.97;;;1.52;;
64313;SDS011;50650;48.180;11.524;2023-12-14T12:29:07;3.13;;;1.23;;
64313;SDS011;50650;48.180;11.524;2023-12-14T12:31:36;1.63;;;0.90;;
64313;SDS011;50650;48.180;11.524;2023-12-14T12:34:02;2.78;;;1.13;;
64313;SDS011;50650;48.180;11.524;2023-12-14T12:36:30;2.75;;;1.10;;
64313;SDS011;50650;48.180;11.524;2023-12-14T12:38:57;2.38;;;0.90;;
64313;SDS011;50650;48.180;11.524;2023-12-14T12:41:26;3.97;;;1.05;;
64313;SDS011;50650;48.180;11.524;2023-12-14T12:43:52;2.17;;;1.17;;
64313;SDS011;50650;48.180;11.524;2023-12-14T12:46:19;3.08;;;1.33;;
64313;SDS011;50650;48.180;11.524;2023-12-14T12:48:45;1.90;;;1.10;;
64313;SDS011;50650;48.180;11.524;2023-12-14T12:51:15;2.00;;;1.10;;
64313;SDS011;50650;48.180;11.524;2023-12-14T12:53:45;3.92;;;1.33;;
64313;SDS011;50650;48.180;11.524;2023-12-14T12:56:11;1.60;;;1.00;;
64313;SDS011;50650;48.180;11.524;2023-12-14T12:58:37;1.70;;;1.10;;
64313;SDS011;50650;48.180;11.524;2023-12-14T13:01:04;1.92;;;1.10;;
64313;SDS011;50650;48.180;11.524;2023-12-14T13:03:31;1.90;;;1.27;;
64313;SDS011;50650;48.180;11.524;2023-12-14T13:05:57;2.53;;;1.40;;
64313;SDS011;50650;48.180;11.524;2023-12-14T13:08:26;2.63;;;1.40;;
64313;SDS011;50650;48.180;11.524;2023-12-14T13:10:54;1.38;;;1.00;;
64313;SDS011;50650;48.180;11.524;2023-12-14T13:13:21;1.65;;;1.17;;
64313;SDS011;50650;48.180;11.524;2023-12-14T13:15:50;5.10;;;1.45;;
64313;SDS011;50650;48.180;11.524;2023-12-14T13:18:16;3.63;;;1.10;;
64313;SDS011;50650;48.180;11.524;2023-12-14T13:20:42;1.92;;;1.17;;
64313;SDS011;50650;48.180;11.524;2023-12-14T13:23:09;2.55;;;1.10;;
64313;SDS011;50650;48.180;11.524;2023-12-14T13:25:41;4.63;;;1.13;;
64313;SDS011;50650;48.180;11.524;2023-12-14T13:28:11;3.28;;;1.17;;
64313;SDS011;50650;48.180;11.524;2023-12-14T13:30:37;1.55;;;0.85;;
64313;SDS011;50650;48.180;11.524;2023-12-14T13:33:04;3.50;;;1.38;;
64313;SDS011;50650;48.180;11.524;2023-12-14T13:35:31;1.20;;;0.93;;
64313;SDS011;50650;48.180;11.524;2023-12-14T13:37:58;2.72;;;1.08;;
64313;SDS011;50650;48.180;11.524;2023-12-14T13:40:24;3.30;;;1.10;;
64313;SDS011;50650;48.180;11.524;2023-12-14T13:42:54;1.40;;;0.98;;
64313;SDS011;50650;48.180;11.524;2023-12-14T13:45:25;2.15;;;1.13;;
64313;SDS011;50650;48.180;11.524;2023-12-14T13:47:54;1.60;;;0.80;;
64313;SDS011;50650;48.180;11.524;2023-12-14T13:50:27;1.90;;;1.02;;
64313;SDS011;50650;48.180;11.524;2023-12-14T13:52:53;1.75;;;1.35;;
64313;SDS011;50650;48.180;11.524;2023-12-14T13:55:20;1.85;;;1.17;;
64313;SDS011;50650;48.180;11.524;2023-12-14T13:57:47;2.30;;;1.10;;
64313;SDS011;50650;48.180;11.524;2023-12-14T14:00:14;1.92;;;1.08;;
64313;SDS011;50650;48.180;11.524;2023-12-14T14:02:42;2.45;;;1.20;;
64313;SDS011;50650;48.180;11.524;2023-12-14T14:05:09;2.13;;;1.30;;
64313;SDS011;50650;48.180;11.524;2023-12-14T14:07:35;1.90;;;1.05;;
64313;SDS011;50650;48.180;11.524;2023-12-14T14:10:02;3.13;;;1.50;;
64313;SDS011;50650;48.180;11.524;2023-12-14T14:12:28;2.70;;;1.23;;
64313;SDS011;50650;48.180;11.524;2023-12-14T14:14:55;1.88;;;0.93;;
64313;SDS011;50650;48.180;11.524;2023-12-14T14:17:21;2.50;;;1.20;;
64313;SDS011;50650;48.180;11.524;2023-12-14T14:19:49;4.03;;;1.40;;
64313;SDS011;50650;48.180;11.524;2023-12-14T14:22:15;4.47;;;1.55;;
64313;SDS011;50650;48.180;11.524;2023-12-14T14:24:42;5.88;;;1.20;;
64313;SDS011;50650;48.180;11.524;2023-12-14T14:27:08;4.10;;;1.10;;
64313;SDS011;50650;48.180;11.524;2023-12-14T14:29:35;3.55;;;1.55;;
64313;SDS011;50650;48.180;11.524;2023-12-14T14:32:01;2.42;;;1.25;;
64313;SDS011;50650;48.180;11.524;2023-12-14T14:34:28;2.33;;;1.20;;
64313;SDS011;50650;48.180;11.524;2023-12-14T14:36:59;3.83;;;1.30;;
64313;SDS011;50650;48.180;11.524;2023-12-14T14:39:25;4.03;;;1.40;;
64313;SDS011;50650;48.180;11.524;2023-12-14T14:41:52;1.50;;;1.17;;